Rechercher aéroport 
image banner adimage banner ad
image banner ad

DFOB - Banfora

Situé à , Burkina Faso

ICAO - DFOB, IATA - BNR

Données fournies par Airmate  

Information générale

Coordonnées: N10°41'0" W4°43'0"
Élévation : 984 feet MSL.
 
Voir autres Aéroports à Comoe

Données opérationnelles

Accessible au public
Heure actuelle UTC:
Heure actuelle locale:
Météo à : DFOO - Bobo-Dioulasso ( 69 km )
METAR: DFOO 290000Z 00000KT CAVOK 26/22 Q1015
TAF: TAF DFOO 282300Z 2900/2924 VRB08KT 9999 FEW016 TEMPO 2912/2924 4000 TSRA SCT016 SCT030CB
Voir NOTAMs / SUP AIP / TFR affectant cet aéroport [VIEW]
Fréquences de communication: [VIEW]

Pistes:

Coordonnées de l'aéroport

Adresse: Burkina Faso

Vue satellite de DFOB